Time;durP1;ratioP1;P1;durP2;ratioP2;P2;SDS_P1;SDS_P2;PMS_P1;PMS_P2;Temp;Humidity;BMP_temperature;BMP_pressure;BME280_temperature;BME280_humidity;BME280_pressure;Samples;Min_cycle;Max_cycle;Signal;HPM_P1;HPM_P2
2022/05/21 00:00:26;;;;;;;21.43;15.50;;;;;;;8.68;76.02;98966.81;1787053;78;20941;-62
2022/05/21 00:02:55;;;;;;;23.70;14.23;;;;;;;8.69;75.77;98958.08;1798299;79;20949;-62
2022/05/21 00:05:26;;;;;;;22.30;16.37;;;;;;;8.67;75.75;98954.70;1792923;79;20964;-62
2022/05/21 00:07:53;;;;;;;22.87;15.38;;;;;;;8.69;75.98;98946.83;1798539;79;21470;-62
2022/05/21 00:10:23;;;;;;;27.40;17.27;;;;;;;8.74;76.10;98937.03;1795445;79;21079;-62
2022/05/21 00:12:50;;;;;;;22.80;17.70;;;;;;;8.83;76.31;98930.49;1803138;78;21438;-62
2022/05/21 00:15:21;;;;;;;29.57;18.95;;;;;;;8.89;76.44;98921.05;1799419;79;20942;-63
2022/05/21 00:17:49;;;;;;;22.50;16.57;;;;;;;9.04;76.57;98918.92;1792946;79;20901;-62
2022/05/21 00:23:17;;;;;;;22.25;17.67;;;;;;;9.18;76.76;98916.41;1764474;79;21501;-62
2022/05/21 00:25:46;;;;;;;29.57;17.32;;;;;;;9.22;76.69;98900.64;1793272;78;20977;-63
2022/05/21 00:28:13;;;;;;;21.17;16.55;;;;;;;9.29;76.83;98894.15;1794842;78;21392;-63
2022/05/21 00:30:40;;;;;;;24.75;16.32;;;;;;;9.35;76.84;98891.20;1823975;78;20894;-62
2022/05/21 00:33:07;;;;;;;21.93;16.55;;;;;;;9.44;76.81;98877.69;1823067;78;20935;-62
2022/05/21 00:35:34;;;;;;;23.67;16.73;;;;;;;9.51;76.79;98865.14;1811946;77;21138;-62
2022/05/21 00:38:01;;;;;;;27.80;17.35;;;;;;;9.55;76.79;98858.37;1809888;78;20845;-62
2022/05/21 00:40:28;;;;;;;24.72;18.80;;;;;;;9.55;76.85;98847.95;1819772;78;20924;-63
2022/05/21 00:42:55;;;;;;;24.92;17.23;;;;;;;9.62;77.01;98838.00;1791510;78;20896;-63
2022/05/21 00:45:22;;;;;;;23.32;18.32;;;;;;;9.67;77.09;98831.23;1811798;77;20912;-62
2022/05/21 00:47:51;;;;;;;15.88;13.62;;;;;;;9.74;77.18;98827.33;1780893;79;21716;-63
2022/05/21 00:50:22;;;;;;;23.32;16.15;;;;;;;9.80;77.22;98823.05;1819293;78;20901;-62
2022/05/21 00:52:51;;;;;;;21.25;16.70;;;;;;;9.86;77.30;98811.81;1813338;77;21905;-62
2022/05/21 00:55:27;;;;;;;16.27;12.58;;;;;;;9.94;77.34;98816.59;1822017;77;20845;-63
2022/05/21 01:00:53;;;;;;;16.00;12.55;;;;;;;10.02;77.60;98803.91;1784487;78;21142;-63
2022/05/21 01:03:20;;;;;;;22.27;17.27;;;;;;;10.07;77.64;98801.87;1807343;78;20942;-63
2022/05/21 01:05:48;;;;;;;19.77;16.40;;;;;;;10.14;77.69;98787.15;1805644;77;20890;-63
2022/05/21 01:08:14;;;;;;;;;;;;;;;10.17;77.56;98779.17;1822736;77;20961;-63
2022/05/21 01:10:48;;;;;;;18.02;12.73;;;;;;;10.19;77.82;98779.89;1812668;78;20122;-63
2022/05/21 01:13:19;;;;;;;14.20;11.65;;;;;;;10.25;77.76;98773.85;1815850;77;21496;-63
2022/05/21 01:15:49;;;;;;;15.15;11.93;;;;;;;10.26;77.51;98778.59;1824384;78;21387;-62
2022/05/21 01:18:16;;;;;;;15.40;12.50;;;;;;;10.26;77.63;98778.59;1823363;77;20953;-63
2022/05/21 01:20:47;;;;;;;13.73;11.90;;;;;;;10.30;77.69;98778.80;1820513;78;20845;-63
2022/05/21 01:23:16;;;;;;;20.00;15.90;;;;;;;10.34;77.76;98769.04;1791724;78;20945;-62
2022/05/21 01:25:44;;;;;;;17.77;12.45;;;;;;;10.36;77.79;98756.23;1818034;78;21737;-62
2022/05/21 01:28:14;;;;;;;15.93;12.10;;;;;;;10.36;77.82;98752.33;1804703;77;20906;-63
2022/05/21 01:30:45;;;;;;;15.72;12.07;;;;;;;10.36;77.82;98751.02;1811291;77;21421;-63
2022/05/21 01:33:16;;;;;;;13.98;11.78;;;;;;;10.36;77.92;98747.11;1812682;77;20942;-63
2022/05/21 01:35:45;;;;;;;15.80;12.75;;;;;;;10.38;77.91;98750.47;1783624;79;20924;-63
2022/05/21 01:38:15;;;;;;;14.50;12.35;;;;;;;10.38;78.00;98746.55;1784097;80;21180;-62
2022/05/21 01:40:43;;;;;;;15.93;12.30;;;;;;;10.41;78.10;98737.23;1807950;78;20849;-63
2022/05/21 01:45:55;;;;;;;17.07;12.07;;;;;;;10.54;78.23;98732.09;1805261;78;20863;-63
2022/05/21 01:48:25;;;;;;;13.85;12.40;;;;;;;10.55;78.13;98722.48;1814887;78;21585;-62
2022/05/21 01:50:53;;;;;;;13.62;12.13;;;;;;;10.60;78.25;98713.91;1813201;78;21046;-63
2022/05/21 01:53:21;;;;;;;16.52;12.28;;;;;;;10.62;78.25;98712.04;1811952;78;20997;-63
2022/05/21 01:55:48;;;;;;;16.55;12.35;;;;;;;10.62;78.17;98701.59;1809592;78;21000;-63
2022/05/21 01:58:15;;;;;;;;;;;;;;;10.65;78.15;98695.70;1818039;77;20920;-63
2022/05/21 02:00:43;;;;;;;15.78;13.18;;;;;;;10.69;78.30;98696.34;1817822;78;20472;-62
2022/05/21 02:03:13;;;;;;;16.17;12.75;;;;;;;10.72;78.30;98688.30;1810305;77;21035;-62
2022/05/21 02:05:40;;;;;;;14.55;11.45;;;;;;;10.72;78.32;98692.22;1818235;77;21470;-62
2022/05/21 02:08:07;;;;;;;16.15;11.93;;;;;;;10.70;78.25;98690.20;1812191;78;20895;-63
2022/05/21 02:10:34;;;;;;;15.32;12.33;;;;;;;10.64;78.29;98683.60;1807574;77;20892;-63
2022/05/21 02:13:02;;;;;;;14.17;12.07;;;;;;;10.59;78.31;98669.17;1809752;78;20936;-63
2022/05/21 02:15:29;;;;;;;17.77;12.37;;;;;;;10.52;78.38;98663.01;1809971;78;22001;-63
2022/05/21 02:17:56;;;;;;;13.85;11.93;;;;;;;10.49;78.42;98664.52;1805992;78;20915;-62
2022/05/21 02:20:23;;;;;;;14.85;12.53;;;;;;;10.47;78.56;98665.10;1813429;78;21550;-63
2022/05/21 02:22:49;;;;;;;14.07;11.33;;;;;;;10.45;78.69;98653.91;1783564;79;21460;-63
2022/05/21 02:25:16;;;;;;;16.53;12.40;;;;;;;10.45;78.78;98655.22;1814606;77;20861;-63
2022/05/21 02:27:43;;;;;;;16.37;12.23;;;;;;;10.47;78.88;98653.36;1809947;77;21026;-63
2022/05/21 02:30:12;;;;;;;17.27;11.43;;;;;;;10.51;79.03;98649.60;1787981;77;21433;-63
2022/05/21 02:32:39;;;;;;;15.45;11.08;;;;;;;10.56;79.14;98653.67;1781240;77;21856;-63
2022/05/21 02:35:06;;;;;;;15.30;11.70;;;;;;;10.61;79.22;98635.95;1809203;78;20892;-63
2022/05/21 02:40:18;;;;;;;12.40;11.15;;;;;;;10.71;79.38;98632.65;1808073;78;21900;-63
2022/05/21 02:42:48;;;;;;;14.10;10.28;;;;;;;10.78;79.57;98625.23;1808461;77;21444;-63
2022/05/21 02:45:21;;;;;;;12.50;10.45;;;;;;;10.83;79.76;98623.17;1810170;79;21478;-63
2022/05/21 02:47:49;;;;;;;12.37;10.53;;;;;;;10.89;79.87;98607.09;1807265;78;21459;-63
2022/05/21 02:50:19;;;;;;;;;;;;;;;10.98;79.90;98610.89;1810048;78;20895;-63
2022/05/21 02:52:45;;;;;;;12.75;10.60;;;;;;;11.07;80.12;98600.30;1811832;77;20823;-63
2022/05/21 02:55:14;;;;;;;10.80;9.77;;;;;;;11.14;80.06;98593.70;1809734;78;20883;-63
2022/05/21 02:57:42;;;;;;;12.03;10.50;;;;;;;11.21;80.12;98592.36;1805927;77;21470;-63
2022/05/21 03:00:17;;;;;;;13.90;11.50;;;;;;;11.26;80.11;98577.22;1803676;78;20847;-63
2022/05/21 03:02:43;;;;;;;13.48;10.85;;;;;;;11.30;80.17;98570.83;1814621;78;20851;-63
2022/05/21 03:05:11;;;;;;;12.70;10.77;;;;;;;11.30;80.39;98569.52;1765745;80;21880;-62
2022/05/21 03:07:50;;;;;;;14.33;11.18;;;;;;;11.32;80.37;98554.58;1724932;80;20962;-63
2022/05/21 03:10:23;;;;;;;11.95;10.75;;;;;;;11.34;80.44;98542.25;1767748;79;20874;-63
2022/05/21 03:12:55;;;;;;;11.93;10.72;;;;;;;11.39;80.40;98540.13;1776150;80;20926;-63
2022/05/21 03:15:37;;;;;;;13.98;11.33;;;;;;;11.43;80.49;98520.69;1779354;79;20927;-63
2022/05/21 03:18:08;;;;;;;13.85;11.20;;;;;;;11.41;80.73;98511.28;1767319;79;20994;-63
2022/05/21 03:20:35;;;;;;;13.65;10.90;;;;;;;11.46;80.74;98505.75;1773419;79;20939;-63
2022/05/21 03:23:01;;;;;;;12.93;11.45;;;;;;;11.50;81.02;98508.02;1781592;80;28105;-63
2022/05/21 03:25:29;;;;;;;12.30;10.80;;;;;;;11.55;81.03;98503.30;1781576;80;20973;-63
2022/05/21 03:27:56;;;;;;;;;;;;;;;11.57;81.14;98494.06;1784506;80;20917;-63
2022/05/21 03:30:29;;;;;;;14.07;10.93;;;;;;;11.59;81.27;98486.45;1778834;79;21840;-63
2022/05/21 03:32:55;;;;;;;14.68;11.63;;;;;;;11.59;81.28;98481.22;1767308;79;21001;-63
2022/05/21 03:35:23;;;;;;;11.85;10.53;;;;;;;11.63;81.34;98479.24;1776331;79;21476;-63
2022/05/21 03:37:51;;;;;;;12.40;10.78;;;;;;;11.67;81.35;98467.61;1773246;80;20887;-63
2022/05/21 03:40:25;;;;;;;13.03;11.53;;;;;;;11.67;81.34;98449.30;1769204;79;20922;-63
2022/05/21 03:42:52;;;;;;;12.85;10.28;;;;;;;11.72;81.43;98454.21;1745850;81;21402;-63
2022/05/21 03:45:19;;;;;;;13.58;10.45;;;;;;;11.74;81.46;98453.16;1769121;80;21409;-63
2022/05/21 03:47:46;;;;;;;15.23;10.50;;;;;;;11.77;81.40;98452.11;1780898;79;20895;-63
2022/05/21 03:50:17;;;;;;;11.78;9.83;;;;;;;11.78;81.46;98445.92;1775852;80;21645;-63
2022/05/21 03:52:44;;;;;;;12.18;10.48;;;;;;;11.80;81.52;98449.27;1777908;79;20895;-63
2022/05/21 03:55:10;;;;;;;12.53;10.15;;;;;;;11.81;81.55;98459.59;1779499;79;21642;-63
2022/05/21 03:57:38;;;;;;;15.25;10.63;;;;;;;11.88;81.74;98486.67;1778164;79;20898;-63
2022/05/21 04:00:10;;;;;;;15.63;11.65;;;;;;;11.97;81.46;98510.84;1756952;80;20930;-63
2022/05/21 04:02:37;;;;;;;12.50;9.90;;;;;;;12.03;81.54;98523.48;1766657;80;20938;-63
2022/05/21 04:05:06;;;;;;;16.27;10.48;;;;;;;12.08;81.44;98503.06;1766257;81;20950;-63
2022/05/21 04:07:33;;;;;;;12.95;10.28;;;;;;;12.03;81.44;98448.92;1804389;78;21026;-63
2022/05/21 04:10:00;;;;;;;16.30;10.65;;;;;;;11.97;81.55;98472.44;1808591;78;21482;-63
2022/05/21 04:12:27;;;;;;;14.03;10.00;;;;;;;11.93;81.69;98488.45;1811237;78;20926;-63
2022/05/21 04:14:53;;;;;;;14.30;11.20;;;;;;;11.92;81.87;98494.64;1813951;78;20928;-63
2022/05/21 04:17:20;;;;;;;12.77;10.57;;;;;;;11.93;81.95;98494.55;1809982;78;21401;-63
2022/05/21 04:19:47;;;;;;;11.33;9.30;;;;;;;11.96;82.04;98491.71;1808109;79;21271;-63
2022/05/21 04:22:13;;;;;;;10.15;9.15;;;;;;;12.01;82.06;98470.42;1809124;78;21001;-63
2022/05/21 04:24:40;;;;;;;10.37;9.37;;;;;;;11.99;81.89;98448.80;1812819;78;20904;-63
2022/05/21 04:27:07;;;;;;;14.28;12.05;;;;;;;11.93;81.95;98441.38;1808261;78;20926;-63
2022/05/21 04:29:35;;;;;;;;;;;;;;;11.89;82.05;98455.64;1812437;78;20883;-63
2022/05/21 04:32:02;;;;;;;13.00;11.43;;;;;;;11.86;82.34;98454.08;1790920;78;21060;-63
2022/05/21 04:34:29;;;;;;;18.60;11.97;;;;;;;11.88;82.35;98456.59;1784422;79;21388;-63
2022/05/21 04:36:56;;;;;;;14.40;12.60;;;;;;;11.86;82.35;98450.98;1769152;79;20934;-63
2022/05/21 04:39:23;;;;;;;;;;;;;;;11.86;82.39;98427.92;1783270;78;21136;-63
2022/05/21 04:41:49;;;;;;;13.57;11.37;;;;;;;11.83;82.49;98425.50;1803102;78;20432;-63
2022/05/21 04:44:16;;;;;;;13.15;10.98;;;;;;;11.79;82.50;98418.36;1767254;79;21043;-63
2022/05/21 04:46:43;;;;;;;10.28;8.98;;;;;;;11.77;82.67;98416.33;1768895;80;21392;-63
2022/05/21 04:49:10;;;;;;;10.63;9.05;;;;;;;11.78;82.71;98411.45;1779490;79;21047;-63
2022/05/21 04:51:38;;;;;;;11.05;9.95;;;;;;;11.72;82.83;98401.44;1784760;78;20954;-63
2022/05/21 04:54:06;;;;;;;10.95;9.70;;;;;;;11.68;82.91;98403.93;1779489;78;20879;-63
2022/05/21 04:56:34;;;;;;;12.18;10.78;;;;;;;11.67;83.13;98395.70;1789630;78;21040;-63
2022/05/21 04:59:00;;;;;;;13.68;11.22;;;;;;;11.52;83.21;98361.55;1790927;78;20903;-63
2022/05/21 05:01:30;;;;;;;11.05;9.95;;;;;;;11.50;83.57;98362.12;1788505;79;21467;-63
2022/05/21 05:03:56;;;;;;;11.75;9.93;;;;;;;11.50;83.57;98362.12;1811759;79;21507;-63
2022/05/21 05:06:22;;;;;;;13.25;10.08;;;;;;;11.60;83.49;98380.13;1807242;77;20967;-62
2022/05/21 05:08:49;;;;;;;13.40;10.25;;;;;;;11.60;83.49;98380.13;1815258;77;21020;-63
2022/05/21 05:11:16;;;;;;;11.05;9.85;;;;;;;11.61;83.65;98373.94;1804003;78;20871;-63
2022/05/21 05:13:42;;;;;;;11.70;10.60;;;;;;;11.63;83.71;98375.50;1804244;79;20992;-63
2022/05/21 05:16:09;;;;;;;11.23;10.03;;;;;;;11.63;83.97;98368.13;1807160;77;20875;-65
2022/05/21 05:18:36;;;;;;;10.03;8.98;;;;;;;11.63;83.90;98366.83;1811442;78;21063;-62
2022/05/21 05:21:03;;;;;;;11.90;10.67;;;;;;;11.65;83.90;98354.48;1814314;79;21050;-65
2022/05/21 05:23:31;;;;;;;13.90;10.72;;;;;;;11.67;83.96;98360.41;1807791;77;27301;-63
2022/05/21 05:26:00;;;;;;;11.50;10.43;;;;;;;11.71;83.99;98358.42;1805728;78;20900;-64
2022/05/21 05:28:28;;;;;;;11.90;10.25;;;;;;;11.74;84.00;98361.64;1815954;78;20986;-63
2022/05/21 05:30:56;;;;;;;11.50;9.95;;;;;;;11.77;84.05;98350.13;1808643;78;21504;-63
2022/05/21 05:33:30;;;;;;;12.28;10.13;;;;;;;11.83;84.13;98353.11;1812598;78;21553;-64
2022/05/21 05:35:58;;;;;;;12.18;10.03;;;;;;;11.90;84.19;98347.44;1766929;79;21439;-64
2022/05/21 05:38:25;;;;;;;11.48;10.25;;;;;;;11.95;84.22;98338.31;1806846;78;20946;-64
2022/05/21 05:40:52;;;;;;;11.12;10.05;;;;;;;12.00;84.20;98339.28;1808583;77;21005;-64
2022/05/21 05:43:21;;;;;;;14.10;10.13;;;;;;;12.02;84.12;98338.70;1815270;77;20965;-64
2022/05/21 05:45:50;;;;;;;12.00;9.98;;;;;;;12.01;84.18;98335.22;1804151;78;21041;-63
2022/05/21 05:48:16;;;;;;;11.10;9.65;;;;;;;12.04;84.28;98332.85;1800965;78;20930;-64
2022/05/21 05:50:43;;;;;;;10.87;9.67;;;;;;;12.10;84.41;98331.11;1803708;77;20887;-63
2022/05/21 05:53:10;;;;;;;9.45;8.45;;;;;;;12.16;84.46;98333.73;1813090;77;21126;-63
2022/05/21 05:55:37;;;;;;;11.08;9.65;;;;;;;12.20;84.40;98322.90;1818216;78;20953;-64
2022/05/21 05:59:48;;;;;;;11.28;10.18;;;;;;;12.23;84.35;98320.05;1809134;78;24643;-63
2022/05/21 06:00:33;;;;;;;10.13;9.20;;;;;;;12.23;84.44;98315.30;1810252;77;20920;-64
2022/05/21 06:03:01;;;;;;;8.83;7.97;;;;;;;12.24;84.42;98317.80;1818550;78;20881;-63
2022/05/21 06:05:32;;;;;;;8.93;8.08;;;;;;;12.22;84.50;98314.47;1824923;78;21190;-63
2022/05/21 06:08:03;;;;;;;9.15;7.80;;;;;;;12.25;84.62;98315.53;1814356;78;20965;-63
2022/05/21 06:10:37;;;;;;;8.40;7.65;;;;;;;12.29;84.72;98311.75;1797911;78;21038;-63
2022/05/21 06:13:05;;;;;;;10.18;8.70;;;;;;;12.30;84.65;98309.48;1822518;77;20945;-63
2022/05/21 06:15:32;;;;;;;9.90;8.93;;;;;;;12.34;84.72;98306.63;1812319;78;20854;-63
2022/05/21 06:17:58;;;;;;;8.45;7.58;;;;;;;12.39;84.79;98301.87;1792140;78;20925;-63
2022/05/21 06:20:27;;;;;;;9.40;8.50;;;;;;;12.41;84.75;98294.74;1796822;78;20889;-63
2022/05/21 06:22:54;;;;;;;10.48;7.60;;;;;;;12.43;84.81;98293.64;1819280;77;21014;-63
2022/05/21 06:25:23;;;;;;;8.05;7.33;;;;;;;12.46;84.78;98295.19;1824851;77;20913;-64
2022/05/21 06:27:52;;;;;;;8.70;7.80;;;;;;;12.47;84.90;98284.62;1823024;78;21456;-63
2022/05/21 06:30:21;;;;;;;11.40;7.92;;;;;;;12.51;84.84;98272.94;1787036;79;21658;-63
2022/05/21 06:32:48;;;;;;;8.98;8.08;;;;;;;12.56;84.97;98284.38;1790341;79;21527;-63
2022/05/21 06:35:17;;;;;;;8.53;7.53;;;;;;;12.61;85.12;98275.69;1794558;78;22312;-63
2022/05/21 06:37:44;;;;;;;8.35;7.47;;;;;;;12.67;85.08;98271.27;1794267;78;21432;-63
2022/05/21 06:40:13;;;;;;;8.65;7.78;;;;;;;12.70;85.11;98272.33;1797219;78;20997;-63
2022/05/21 06:42:40;;;;;;;8.38;7.58;;;;;;;12.77;85.25;98272.67;1783339;79;20894;-65
2022/05/21 06:45:09;;;;;;;8.83;7.90;;;;;;;12.88;85.41;98264.82;1793816;78;21478;-64
2022/05/21 06:47:36;;;;;;;7.95;7.17;;;;;;;13.01;85.52;98263.83;1800892;78;22412;-63
2022/05/21 06:50:05;;;;;;;7.78;6.97;;;;;;;13.18;85.61;98261.49;1796992;78;20908;-64
2022/05/21 06:52:32;;;;;;;8.38;6.72;;;;;;;13.30;85.44;98259.69;1793794;78;20922;-63
2022/05/21 06:55:00;;;;;;;8.15;6.75;;;;;;;13.40;85.45;98263.72;1785785;78;20944;-64
2022/05/21 06:57:28;;;;;;;;;;;;;;;13.42;85.29;98257.88;1794888;78;21013;-63
2022/05/21 06:59:55;;;;;;;7.45;6.65;;;;;;;13.46;85.44;98256.66;1793961;78;21182;-63
2022/05/21 07:02:24;;;;;;;8.38;6.55;;;;;;;13.49;85.46;98252.46;1795506;79;20895;-63
2022/05/21 07:07:45;;;;;;;7.80;5.58;;;;;;;13.49;85.21;98240.66;1766558;79;20917;-63
2022/05/21 07:10:22;;;;;;;6.87;6.15;;;;;;;13.49;85.31;98243.28;1759528;78;21483;-63
2022/05/21 07:12:49;;;;;;;;;;;;;;;13.50;85.38;98247.59;1802649;79;23410;-63
2022/05/21 07:15:17;;;;;;;3.40;2.83;;;;;;;13.57;85.63;98248.73;1793299;78;20097;-64
2022/05/21 07:17:49;;;;;;;1.60;1.50;;;;;;;13.56;85.44;98249.70;1793044;78;20893;-64
2022/05/21 07:20:21;;;;;;;3.45;1.30;;;;;;;13.51;85.28;98254.48;1791949;79;21017;-61
2022/05/21 07:22:49;;;;;;;1.30;1.20;;;;;;;13.45;85.24;98246.31;1800728;78;20941;-64
2022/05/21 07:25:21;;;;;;;1.30;1.20;;;;;;;13.32;85.13;98243.37;1801697;78;21036;-63
2022/05/21 07:27:47;;;;;;;1.98;1.10;;;;;;;13.25;85.41;98259.68;1797289;79;20935;-63
2022/05/21 07:30:14;;;;;;;2.35;1.10;;;;;;;13.21;85.34;98263.03;1796694;78;21485;-64
2022/05/21 07:32:41;;;;;;;2.87;1.52;;;;;;;13.20;85.39;98262.70;1796069;78;20945;-64
2022/05/21 07:35:13;;;;;;;2.22;1.25;;;;;;;13.18;85.46;98253.63;1791794;78;20965;-64
2022/05/21 07:37:40;;;;;;;1.85;1.17;;;;;;;13.13;85.24;98253.17;1792350;78;22036;-62
2022/05/21 07:40:08;;;;;;;3.60;2.30;;;;;;;13.05;85.19;98262.16;1768611;79;21478;-63
2022/05/21 07:42:37;;;;;;;3.30;3.00;;;;;;;12.95;85.16;98257.30;1776948;79;20909;-63
2022/05/21 07:45:06;;;;;;;4.15;3.25;;;;;;;12.79;85.29;98262.09;1791881;78;20941;-64
2022/05/21 07:47:33;;;;;;;6.87;4.58;;;;;;;12.67;85.26;98254.73;1799533;79;20941;-63
2022/05/21 07:50:00;;;;;;;5.10;3.90;;;;;;;12.56;85.42;98263.91;1802895;79;21019;-64
2022/05/21 07:52:28;;;;;;;5.42;3.55;;;;;;;12.37;85.84;98272.36;1798530;78;20890;-63
2022/05/21 07:54:56;;;;;;;3.87;3.47;;;;;;;12.37;85.84;98272.36;1801799;78;21416;-63
2022/05/21 07:57:24;;;;;;;8.40;3.50;;;;;;;12.31;85.84;98278.42;1797474;78;20950;-64
2022/05/21 07:59:51;;;;;;;5.37;2.92;;;;;;;12.33;86.00;98280.11;1732675;81;20961;-64
2022/05/21 08:02:19;;;;;;;4.87;3.10;;;;;;;12.35;86.05;98277.73;1729944;82;21853;-63
2022/05/21 08:04:48;;;;;;;8.45;2.50;;;;;;;12.33;85.92;98294.50;1732242;81;20888;-64
2022/05/21 08:07:16;;;;;;;2.08;1.90;;;;;;;12.33;85.92;98294.50;1735647;81;20995;-64
2022/05/21 08:09:43;;;;;;;3.00;1.80;;;;;;;12.33;86.09;98291.88;1746144;81;20957;-64
2022/05/21 08:12:14;;;;;;;3.47;1.25;;;;;;;12.35;85.87;98279.48;1759725;80;20981;-64
2022/05/21 08:14:42;;;;;;;1.87;1.40;;;;;;;12.18;86.09;98265.91;1762422;80;21201;-64
2022/05/21 08:17:11;;;;;;;1.20;1.10;;;;;;;12.36;86.25;98286.41;1762934;80;20922;-64
2022/05/21 08:19:41;;;;;;;1.35;1.12;;;;;;;12.45;86.65;98301.39;1764068;80;21519;-63
2022/05/21 08:27:40;;;;;;;0.35;0.35;;;;;;;12.18;87.12;98362.73;1737684;81;21084;-63
2022/05/21 08:30:21;;;;;;;0.82;0.30;;;;;;;12.18;87.12;98362.73;1761404;79;20914;-63
2022/05/21 08:32:59;;;;;;;0.53;0.17;;;;;;;10.81;86.93;98443.59;1807373;78;20966;-63
2022/05/21 08:35:25;;;;;;;0.28;0.10;;;;;;;10.81;86.93;98443.59;1809924;79;21534;-63
2022/05/21 08:37:53;;;;;;;0.10;0.10;;;;;;;10.34;88.75;98469.81;1812048;78;20897;-64
2022/05/21 08:40:21;;;;;;;1.07;0.93;;;;;;;10.15;88.74;98493.63;1778140;79;21045;-63
2022/05/21 08:42:55;;;;;;;0.30;0.20;;;;;;;10.09;88.72;98515.72;1774869;79;21044;-64
2022/05/21 08:45:27;;;;;;;0.40;0.10;;;;;;;10.00;89.45;98545.01;1809427;78;20891;-63
2022/05/21 08:48:08;;;;;;;0.90;0.20;;;;;;;9.72;89.90;98539.84;1809571;78;20935;-64
2022/05/21 08:50:39;;;;;;;0.10;0.10;;;;;;;9.58;89.23;98580.65;1809910;78;20898;-65
2022/05/21 08:53:10;;;;;;;0.30;0.20;;;;;;;9.23;90.03;98587.14;1814549;78;21038;-62
2022/05/21 08:55:46;;;;;;;0.90;0.17;;;;;;;9.02;90.23;98607.03;1807871;78;20843;-65
2022/05/21 08:58:42;;;;;;;0.35;0.20;;;;;;;8.99;90.29;98617.62;1810313;78;21100;-65
2022/05/21 09:01:12;;;;;;;0.10;0.10;;;;;;;8.94;91.77;98631.37;1811159;78;21417;-64
2022/05/21 09:03:40;;;;;;;0.30;0.10;;;;;;;8.91;92.70;98644.56;1806679;78;20939;-65
2022/05/21 09:06:39;;;;;;;0.60;0.20;;;;;;;8.90;92.84;98655.42;1806855;78;21852;-63
2022/05/21 09:09:33;;;;;;;0.20;0.20;;;;;;;8.85;92.64;98665.72;1805686;78;20910;-64
2022/05/21 09:12:20;;;;;;;0.10;0.10;;;;;;;8.81;92.76;98678.55;1786467;78;20919;-64
2022/05/21 09:14:54;;;;;;;0.53;0.20;;;;;;;8.78;92.75;98690.43;1800933;79;20914;-63
2022/05/21 09:17:25;;;;;;;0.23;0.20;;;;;;;8.82;92.31;98700.59;1780731;79;20856;-62
2022/05/21 09:19:59;;;;;;;0.30;0.30;;;;;;;8.80;92.85;98701.60;1801969;79;21042;-63
2022/05/21 09:22:27;;;;;;;0.30;0.25;;;;;;;8.78;92.34;98709.95;1769295;79;20863;-63
2022/05/21 09:25:00;;;;;;;0.37;0.20;;;;;;;8.77;92.38;98720.83;1808880;78;20901;-63
2022/05/21 09:27:38;;;;;;;0.70;0.13;;;;;;;8.81;92.14;98734.03;1807283;78;20902;-63
2022/05/21 09:30:25;;;;;;;1.65;0.37;;;;;;;8.80;93.10;98758.87;1805604;78;20912;-63
2022/05/21 09:33:01;;;;;;;0.10;0.10;;;;;;;8.79;93.44;98764.98;1806569;77;21470;-62
2022/05/21 09:35:33;;;;;;;0.25;0.10;;;;;;;8.85;92.69;98759.42;1797229;78;20946;-62
2022/05/21 09:38:26;;;;;;;0.15;0.10;;;;;;;8.90;93.37;98770.42;1799030;77;21532;-62
2022/05/21 09:41:23;;;;;;;2.00;0.10;;;;;;;8.92;93.55;98773.80;1793774;78;20926;-61
2022/05/21 09:47:13;;;;;;;0.30;0.30;;;;;;;8.91;93.39;98787.75;1807423;78;21043;-62
2022/05/21 09:49:41;;;;;;;0.40;0.30;;;;;;;9.02;93.02;98795.80;1804460;78;20859;-62
2022/05/21 09:52:23;;;;;;;0.28;0.20;;;;;;;9.01;93.96;98803.69;1807268;78;26328;-62
2022/05/21 09:54:50;;;;;;;0.57;0.30;;;;;;;9.12;93.77;98793.51;1808167;78;21489;-62
2022/05/21 09:57:37;;;;;;;0.78;0.40;;;;;;;9.31;93.21;98807.17;1818508;77;20910;-62
2022/05/21 10:00:16;;;;;;;0.62;0.30;;;;;;;9.41;92.69;98812.72;1776825;79;21675;-62
2022/05/21 10:02:49;;;;;;;0.35;0.23;;;;;;;9.36;92.25;98819.48;1763427;79;21026;-62
2022/05/21 10:05:27;;;;;;;0.57;0.25;;;;;;;9.47;92.54;98819.34;1773104;80;20951;-63
2022/05/21 10:11:24;;;;;;;0.30;0.30;;;;;;;9.76;92.53;98821.09;1775139;78;21456;-63
2022/05/21 10:14:14;;;;;;;0.70;0.20;;;;;;;9.90;91.90;98833.33;1774701;80;21012;-63
2022/05/21 10:16:55;;;;;;;0.55;0.30;;;;;;;9.72;91.30;98830.48;1785855;78;20957;-63
2022/05/21 10:19:54;;;;;;;1.47;0.47;;;;;;;9.61;91.61;98844.98;1746550;78;20865;-63
2022/05/21 10:22:44;;;;;;;0.42;0.30;;;;;;;9.46;91.93;98847.14;1780754;79;21420;-63
2022/05/21 10:25:22;;;;;;;0.45;0.40;;;;;;;9.44;91.69;98842.51;1783679;79;20966;-61
2022/05/21 10:28:09;;;;;;;0.50;0.23;;;;;;;9.51;91.88;98850.80;1785155;78;21405;-63
2022/05/21 10:31:14;;;;;;;1.07;0.30;;;;;;;9.68;91.99;98857.19;1782414;78;28793;-62
2022/05/21 10:34:06;;;;;;;0.30;0.30;;;;;;;9.73;91.90;98861.68;1766885;79;20936;-64
2022/05/21 10:36:51;;;;;;;1.75;1.30;;;;;;;9.77;91.57;98859.73;1762759;81;21953;-63
2022/05/21 10:39:29;;;;;;;0.72;0.40;;;;;;;10.01;91.78;98870.05;1651929;85;20975;-63
2022/05/21 10:42:04;;;;;;;0.30;0.28;;;;;;;10.12;91.28;98867.28;1629064;85;21079;-61
2022/05/21 10:44:58;;;;;;;0.50;0.30;;;;;;;10.45;91.57;98868.39;1646195;85;20985;-63
2022/05/21 10:47:47;;;;;;;1.35;0.40;;;;;;;10.77;90.62;98863.80;1644747;85;20984;-61
2022/05/21 10:50:25;;;;;;;0.80;0.23;;;;;;;10.72;89.81;98878.42;1662222;83;20966;-61
2022/05/21 10:53:06;;;;;;;0.60;0.40;;;;;;;10.84;89.40;98873.37;1682313;83;20969;-62
2022/05/21 10:55:49;;;;;;;1.32;0.30;;;;;;;11.10;90.11;98875.70;1679163;83;21130;-62
2022/05/21 10:58:28;;;;;;;0.30;0.23;;;;;;;11.36;89.42;98876.65;1641121;85;20913;-61
2022/05/21 11:01:21;;;;;;;0.53;0.30;;;;;;;11.34;88.96;98881.99;1666461;84;21002;-62
2022/05/21 11:04:40;;;;;;;0.40;0.20;;;;;;;11.48;89.21;98885.48;1648237;84;20979;-60
2022/05/21 11:07:33;;;;;;;1.32;0.23;;;;;;;11.57;88.63;98886.22;1621511;85;20996;-61
2022/05/21 11:10:13;;;;;;;2.08;0.30;;;;;;;11.35;88.03;98901.13;1619588;86;21988;-61
2022/05/21 11:12:54;;;;;;;0.33;0.25;;;;;;;11.21;88.63;98894.16;1628961;86;20965;-62
2022/05/21 11:15:41;;;;;;;1.67;0.30;;;;;;;11.27;88.50;98898.16;1616275;83;20980;-61
2022/05/21 11:18:45;;;;;;;0.50;0.30;;;;;;;11.31;88.92;98900.45;1631515;86;20989;-62
2022/05/21 11:21:28;;;;;;;0.20;0.20;;;;;;;11.40;88.54;98889.44;1630971;86;21903;-63
2022/05/21 11:24:12;;;;;;;0.20;0.20;;;;;;;11.18;87.42;98907.41;1680459;84;21940;-63
2022/05/21 11:26:53;;;;;;;2.17;0.45;;;;;;;11.15;87.90;98923.28;1679920;83;20915;-62
2022/05/21 11:29:50;;;;;;;0.60;0.20;;;;;;;10.93;87.50;98915.93;1685805;84;20887;-63
2022/05/21 11:38:43;;;;;;;1.92;0.20;;;;;;;10.41;87.80;98922.51;1681279;84;22128;-61
2022/05/21 11:41:30;;;;;;;0.20;0.20;;;;;;;10.41;87.80;98922.51;1698978;82;21466;-61
2022/05/21 11:47:14;;;;;;;0.50;0.23;;;;;;;10.35;88.15;98928.09;1709616;82;20974;-60
2022/05/21 11:49:51;;;;;;;0.20;0.20;;;;;;;10.36;88.24;98932.38;1729564;81;20909;-61
2022/05/21 11:52:32;;;;;;;0.15;0.15;;;;;;;10.48;88.71;98931.67;1731782;82;21014;-61
2022/05/21 11:55:16;;;;;;;0.50;0.47;;;;;;;10.59;88.45;98936.73;1703074;81;21512;-61
2022/05/21 11:57:50;;;;;;;0.95;0.60;;;;;;;10.57;88.15;98935.97;1756863;79;20974;-60
2022/05/21 12:00:26;;;;;;;2.58;0.50;;;;;;;10.50;88.17;98940.26;1765518;79;20903;-60
2022/05/21 12:02:58;;;;;;;0.95;0.42;;;;;;;10.49;88.45;98947.69;1761548;80;20961;-61
2022/05/21 12:05:46;;;;;;;1.77;0.50;;;;;;;10.42;88.17;98952.05;1762386;80;21023;-60
2022/05/21 12:08:33;;;;;;;0.68;0.45;;;;;;;10.18;88.10;98954.31;1760684;79;21511;-61
2022/05/21 12:11:13;;;;;;;0.98;0.70;;;;;;;10.19;88.74;98958.59;1762889;81;20956;-60
2022/05/21 12:14:25;;;;;;;1.55;0.53;;;;;;;10.16;88.68;98956.16;1757767;79;20921;-60
2022/05/21 12:16:59;;;;;;;2.15;0.88;;;;;;;10.42;89.03;98951.61;1739410;81;36962;-60
2022/05/21 12:19:58;;;;;;;1.72;0.70;;;;;;;10.79;88.14;98966.39;1760888;79;21108;-61
2022/05/21 12:22:50;;;;;;;0.88;0.60;;;;;;;11.09;88.14;98965.44;1763328;80;20928;-61
2022/05/21 12:25:44;;;;;;;1.10;0.65;;;;;;;11.09;88.14;98965.44;1763475;80;20891;-61
2022/05/21 12:28:13;;;;;;;1.50;0.80;;;;;;;11.07;87.65;98968.16;1760298;80;20984;-61